sensor_id;sensor_type;location;lat;lon;timestamp;pressure;altitude;pressure_sealevel;temperature;humidity
80202;BME280;69521;54.454;9.928;2023-04-28T00:00:24;101829.19;;;-0.34;79.76
80202;BME280;69521;54.454;9.928;2023-04-28T00:02:50;101831.72;;;-0.30;79.62
80202;BME280;69521;54.454;9.928;2023-04-28T00:05:16;101816.50;;;-0.22;79.37
80202;BME280;69521;54.454;9.928;2023-04-28T00:07:42;101829.31;;;-0.10;78.64
80202;BME280;69521;54.454;9.928;2023-04-28T00:10:07;101829.47;;;-0.15;79.32
80202;BME280;69521;54.454;9.928;2023-04-28T00:12:33;101822.59;;;-0.20;80.11
80202;BME280;69521;54.454;9.928;2023-04-28T00:14:58;101825.28;;;-0.22;79.70
80202;BME280;69521;54.454;9.928;2023-04-28T00:17:24;101818.38;;;-0.26;79.98
80202;BME280;69521;54.454;9.928;2023-04-28T00:19:49;101821.91;;;-0.27;80.21
80202;BME280;69521;54.454;9.928;2023-04-28T00:22:14;101825.53;;;-0.29;80.98
80202;BME280;69521;54.454;9.928;2023-04-28T00:24:40;101812.91;;;-0.49;81.66
80202;BME280;69521;54.454;9.928;2023-04-28T00:27:06;101814.75;;;-0.51;81.23
80202;BME280;69521;54.454;9.928;2023-04-28T00:29:32;101813.59;;;-0.43;80.68
80202;BME280;69521;54.454;9.928;2023-04-28T00:31:57;101809.31;;;-0.47;81.71
80202;BME280;69521;54.454;9.928;2023-04-28T00:34:22;101820.22;;;-0.57;80.92
80202;BME280;69521;54.454;9.928;2023-04-28T00:36:48;101816.88;;;-0.64;80.43
80202;BME280;69521;54.454;9.928;2023-04-28T00:39:14;101812.56;;;-0.67;80.56
80202;BME280;69521;54.454;9.928;2023-04-28T00:41:40;101808.72;;;-0.56;80.01
80202;BME280;69521;54.454;9.928;2023-04-28T00:44:06;101806.84;;;-0.53;79.85
80202;BME280;69521;54.454;9.928;2023-04-28T00:46:32;101802.44;;;-0.52;79.44
80202;BME280;69521;54.454;9.928;2023-04-28T00:48:58;101807.59;;;-0.48;79.32
80202;BME280;69521;54.454;9.928;2023-04-28T00:51:24;101803.03;;;-0.43;78.87
80202;BME280;69521;54.454;9.928;2023-04-28T00:53:49;101804.94;;;-0.48;79.09
80202;BME280;69521;54.454;9.928;2023-04-28T00:56:15;101802.16;;;-0.43;79.28
80202;BME280;69521;54.454;9.928;2023-04-28T00:58:42;101809.09;;;-0.39;78.87
80202;BME280;69521;54.454;9.928;2023-04-28T01:01:08;101800.19;;;-0.37;78.57
80202;BME280;69521;54.454;9.928;2023-04-28T01:03:35;101798.66;;;-0.44;78.33
80202;BME280;69521;54.454;9.928;2023-04-28T01:06:03;101795.19;;;-0.46;77.64
80202;BME280;69521;54.454;9.928;2023-04-28T01:08:29;101801.28;;;-0.44;77.42
80202;BME280;69521;54.454;9.928;2023-04-28T01:10:55;101805.72;;;-0.44;77.98
80202;BME280;69521;54.454;9.928;2023-04-28T01:13:20;101797.94;;;-0.49;77.97
80202;BME280;69521;54.454;9.928;2023-04-28T01:15:46;101804.94;;;-0.48;77.77
80202;BME280;69521;54.454;9.928;2023-04-28T01:18:11;101801.56;;;-0.53;78.68
80202;BME280;69521;54.454;9.928;2023-04-28T01:20:37;101800.34;;;-0.71;79.61
80202;BME280;69521;54.454;9.928;2023-04-28T01:23:03;101803.25;;;-0.80;80.06
80202;BME280;69521;54.454;9.928;2023-04-28T01:25:28;101805.09;;;-0.82;79.85
80202;BME280;69521;54.454;9.928;2023-04-28T01:27:53;101797.97;;;-0.80;80.26
80202;BME280;69521;54.454;9.928;2023-04-28T01:30:19;101806.81;;;-0.81;80.61
80202;BME280;69521;54.454;9.928;2023-04-28T01:32:44;101805.94;;;-0.81;80.11
80202;BME280;69521;54.454;9.928;2023-04-28T01:35:09;101807.06;;;-0.90;80.39
80202;BME280;69521;54.454;9.928;2023-04-28T01:37:35;101809.78;;;-0.93;80.21
80202;BME280;69521;54.454;9.928;2023-04-28T01:40:00;101803.53;;;-0.90;80.15
80202;BME280;69521;54.454;9.928;2023-04-28T01:42:25;101799.91;;;-0.85;79.92
80202;BME280;69521;54.454;9.928;2023-04-28T01:44:51;101810.50;;;-0.86;80.80
80202;BME280;69521;54.454;9.928;2023-04-28T01:47:16;101807.78;;;-0.83;81.74
80202;BME280;69521;54.454;9.928;2023-04-28T01:49:41;101813.97;;;-0.84;81.53
80202;BME280;69521;54.454;9.928;2023-04-28T01:52:07;101803.47;;;-0.87;81.17
80202;BME280;69521;54.454;9.928;2023-04-28T01:54:32;101798.81;;;-0.78;80.90
80202;BME280;69521;54.454;9.928;2023-04-28T01:56:57;101797.72;;;-0.71;80.27
80202;BME280;69521;54.454;9.928;2023-04-28T01:59:23;101789.56;;;-0.63;80.28
80202;BME280;69521;54.454;9.928;2023-04-28T02:01:48;101787.63;;;-0.58;80.50
80202;BME280;69521;54.454;9.928;2023-04-28T02:04:13;101788.44;;;-0.56;80.71
80202;BME280;69521;54.454;9.928;2023-04-28T02:06:39;101788.50;;;-0.57;80.58
80202;BME280;69521;54.454;9.928;2023-04-28T02:09:04;101794.00;;;-0.65;80.97
80202;BME280;69521;54.454;9.928;2023-04-28T02:11:29;101790.00;;;-0.78;81.32
80202;BME280;69521;54.454;9.928;2023-04-28T02:13:54;101788.13;;;-0.75;80.92
80202;BME280;69521;54.454;9.928;2023-04-28T02:16:20;101789.66;;;-0.66;81.69
80202;BME280;69521;54.454;9.928;2023-04-28T02:18:45;101786.28;;;-0.71;82.06
80202;BME280;69521;54.454;9.928;2023-04-28T02:21:11;101778.53;;;-0.77;81.91
80202;BME280;69521;54.454;9.928;2023-04-28T02:23:37;101777.44;;;-0.70;81.64
80202;BME280;69521;54.454;9.928;2023-04-28T02:26:02;101776.44;;;-0.66;82.18
80202;BME280;69521;54.454;9.928;2023-04-28T02:28:28;101775.63;;;-0.68;81.55
80202;BME280;69521;54.454;9.928;2023-04-28T02:33:31;101775.44;;;-0.62;81.91
80202;BME280;69521;54.454;9.928;2023-04-28T02:36:00;101775.53;;;-0.65;82.15
80202;BME280;69521;54.454;9.928;2023-04-28T02:38:26;101766.88;;;-0.70;81.84
80202;BME280;69521;54.454;9.928;2023-04-28T02:41:04;101765.91;;;-0.68;81.69
80202;BME280;69521;54.454;9.928;2023-04-28T02:43:31;101755.06;;;-0.58;81.19
80202;BME280;69521;54.454;9.928;2023-04-28T02:45:56;101761.00;;;-0.52;81.11
80202;BME280;69521;54.454;9.928;2023-04-28T02:48:23;101755.69;;;-0.50;81.28
80202;BME280;69521;54.454;9.928;2023-04-28T02:50:48;101749.38;;;-0.46;81.62
80202;BME280;69521;54.454;9.928;2023-04-28T02:53:14;101751.16;;;-0.47;81.47
80202;BME280;69521;54.454;9.928;2023-04-28T02:55:39;101750.53;;;-0.55;82.61
80202;BME280;69521;54.454;9.928;2023-04-28T02:58:05;101751.59;;;-0.60;82.08
80202;BME280;69521;54.454;9.928;2023-04-28T03:00:30;101749.63;;;-0.54;82.27
80202;BME280;69521;54.454;9.928;2023-04-28T03:02:55;101743.13;;;-0.44;81.47
80202;BME280;69521;54.454;9.928;2023-04-28T03:05:21;101737.66;;;-0.38;81.71
80202;BME280;69521;54.454;9.928;2023-04-28T03:07:46;101741.81;;;-0.30;80.89
80202;BME280;69521;54.454;9.928;2023-04-28T03:10:11;101742.06;;;-0.38;82.06
80202;BME280;69521;54.454;9.928;2023-04-28T03:12:37;101732.03;;;-0.55;82.79
80202;BME280;69521;54.454;9.928;2023-04-28T03:15:02;101733.88;;;-0.57;82.50
80202;BME280;69521;54.454;9.928;2023-04-28T03:17:28;101729.50;;;-0.58;82.40
80202;BME280;69521;54.454;9.928;2023-04-28T03:19:53;101726.59;;;-0.50;81.94
80202;BME280;69521;54.454;9.928;2023-04-28T03:22:19;101726.34;;;-0.43;82.07
80202;BME280;69521;54.454;9.928;2023-04-28T03:24:44;101720.78;;;-0.34;81.21
80202;BME280;69521;54.454;9.928;2023-04-28T03:27:10;101723.22;;;-0.27;81.18
80202;BME280;69521;54.454;9.928;2023-04-28T03:29:35;101724.09;;;-0.27;81.99
80202;BME280;69521;54.454;9.928;2023-04-28T03:32:00;101718.56;;;-0.47;83.55
80202;BME280;69521;54.454;9.928;2023-04-28T03:34:26;101719.69;;;-0.54;82.45
80202;BME280;69521;54.454;9.928;2023-04-28T03:36:51;101718.88;;;-0.56;83.42
80202;BME280;69521;54.454;9.928;2023-04-28T03:39:17;101721.59;;;-0.59;84.75
80202;BME280;69521;54.454;9.928;2023-04-28T03:41:42;101711.03;;;-0.59;83.18
80202;BME280;69521;54.454;9.928;2023-04-28T03:44:07;101709.41;;;-0.63;84.55
80202;BME280;69521;54.454;9.928;2023-04-28T03:46:33;101707.72;;;-0.66;85.20
80202;BME280;69521;54.454;9.928;2023-04-28T03:48:59;101704.97;;;-0.63;84.46
80202;BME280;69521;54.454;9.928;2023-04-28T03:51:26;101705.41;;;-0.49;83.62
80202;BME280;69521;54.454;9.928;2023-04-28T03:53:52;101695.44;;;-0.41;82.65
80202;BME280;69521;54.454;9.928;2023-04-28T03:56:17;101690.78;;;-0.33;81.77
80202;BME280;69521;54.454;9.928;2023-04-28T03:58:42;101694.19;;;-0.29;81.42
80202;BME280;69521;54.454;9.928;2023-04-28T04:01:08;101689.81;;;-0.30;81.79
80202;BME280;69521;54.454;9.928;2023-04-28T04:03:33;101692.59;;;-0.35;81.82
80202;BME280;69521;54.454;9.928;2023-04-28T04:05:58;101682.72;;;-0.56;82.81
80202;BME280;69521;54.454;9.928;2023-04-28T04:08:24;101689.66;;;-0.52;82.50
80202;BME280;69521;54.454;9.928;2023-04-28T04:10:49;101686.09;;;-0.51;82.19
80202;BME280;69521;54.454;9.928;2023-04-28T04:13:17;101680.75;;;-0.49;82.67
80202;BME280;69521;54.454;9.928;2023-04-28T04:15:42;101678.06;;;-0.48;82.33
80202;BME280;69521;54.454;9.928;2023-04-28T04:18:08;101684.94;;;-0.42;82.44
80202;BME280;69521;54.454;9.928;2023-04-28T04:20:33;101681.28;;;-0.38;81.91
80202;BME280;69521;54.454;9.928;2023-04-28T04:22:58;101679.84;;;-0.48;83.00
80202;BME280;69521;54.454;9.928;2023-04-28T04:25:23;101676.78;;;-0.62;83.62
80202;BME280;69521;54.454;9.928;2023-04-28T04:27:49;101676.72;;;-0.61;83.03
80202;BME280;69521;54.454;9.928;2023-04-28T04:30:14;101673.03;;;-0.55;82.89
80202;BME280;69521;54.454;9.928;2023-04-28T04:32:39;101667.78;;;-0.57;82.90
80202;BME280;69521;54.454;9.928;2023-04-28T04:35:05;101674.81;;;-0.56;82.13
80202;BME280;69521;54.454;9.928;2023-04-28T04:37:30;101678.25;;;-0.54;82.31
80202;BME280;69521;54.454;9.928;2023-04-28T04:39:56;101671.09;;;-0.50;82.35
80202;BME280;69521;54.454;9.928;2023-04-28T04:42:21;101676.13;;;-0.43;82.28
80202;BME280;69521;54.454;9.928;2023-04-28T04:44:46;101678.69;;;-0.40;81.97
80202;BME280;69521;54.454;9.928;2023-04-28T04:47:11;101667.94;;;-0.35;81.79
80202;BME280;69521;54.454;9.928;2023-04-28T04:49:37;101669.47;;;-0.28;81.34
80202;BME280;69521;54.454;9.928;2023-04-28T04:52:03;101667.53;;;-0.23;81.30
80202;BME280;69521;54.454;9.928;2023-04-28T04:54:28;101668.28;;;-0.19;80.91
80202;BME280;69521;54.454;9.928;2023-04-28T04:56:54;101659.50;;;-0.20;81.29
80202;BME280;69521;54.454;9.928;2023-04-28T04:59:20;101657.66;;;-0.18;81.76
80202;BME280;69521;54.454;9.928;2023-04-28T05:01:45;101663.00;;;-0.19;82.08
80202;BME280;69521;54.454;9.928;2023-04-28T05:04:10;101659.44;;;-0.18;81.06
80202;BME280;69521;54.454;9.928;2023-04-28T05:06:36;101656.25;;;-0.28;82.03
80202;BME280;69521;54.454;9.928;2023-04-28T05:09:01;101645.81;;;-0.33;83.10
80202;BME280;69521;54.454;9.928;2023-04-28T05:11:26;101655.69;;;-0.38;82.38
80202;BME280;69521;54.454;9.928;2023-04-28T05:13:52;101658.13;;;-0.32;82.39
80202;BME280;69521;54.454;9.928;2023-04-28T05:16:17;101644.88;;;-0.30;82.24
80202;BME280;69521;54.454;9.928;2023-04-28T05:18:42;101654.56;;;-0.30;83.13
80202;BME280;69521;54.454;9.928;2023-04-28T05:21:08;101653.56;;;-0.26;83.28
80202;BME280;69521;54.454;9.928;2023-04-28T05:23:35;101644.66;;;-0.24;82.13
80202;BME280;69521;54.454;9.928;2023-04-28T05:26:01;101655.78;;;-0.14;83.26
80202;BME280;69521;54.454;9.928;2023-04-28T05:28:29;101645.81;;;-0.06;84.01
80202;BME280;69521;54.454;9.928;2023-04-28T05:30:55;101645.41;;;0.06;83.66
80202;BME280;69521;54.454;9.928;2023-04-28T05:33:20;101640.59;;;0.17;85.41
80202;BME280;69521;54.454;9.928;2023-04-28T05:35:46;101640.56;;;0.42;87.30
80202;BME280;69521;54.454;9.928;2023-04-28T05:38:12;101640.63;;;0.64;88.79
80202;BME280;69521;54.454;9.928;2023-04-28T05:40:37;101638.81;;;0.89;88.43
80202;BME280;69521;54.454;9.928;2023-04-28T05:43:02;101630.13;;;1.08;88.07
80202;BME280;69521;54.454;9.928;2023-04-28T05:45:28;101631.66;;;1.35;88.62
80202;BME280;69521;54.454;9.928;2023-04-28T05:47:54;101631.66;;;1.57;87.68
80202;BME280;69521;54.454;9.928;2023-04-28T05:50:19;101624.03;;;1.70;87.08
80202;BME280;69521;54.454;9.928;2023-04-28T05:52:45;101622.63;;;1.83;88.05
80202;BME280;69521;54.454;9.928;2023-04-28T05:55:11;101620.50;;;2.11;87.66
80202;BME280;69521;54.454;9.928;2023-04-28T05:57:36;101610.94;;;2.46;86.64
80202;BME280;69521;54.454;9.928;2023-04-28T06:00:01;101617.81;;;2.71;85.78
80202;BME280;69521;54.454;9.928;2023-04-28T06:02:27;101617.59;;;2.94;84.80
80202;BME280;69521;54.454;9.928;2023-04-28T06:04:52;101614.84;;;3.14;82.26
80202;BME280;69521;54.454;9.928;2023-04-28T06:07:18;101616.94;;;3.44;83.41
80202;BME280;69521;54.454;9.928;2023-04-28T06:09:43;101617.22;;;3.57;81.74
80202;BME280;69521;54.454;9.928;2023-04-28T06:12:09;101613.78;;;3.72;81.21
80202;BME280;69521;54.454;9.928;2023-04-28T06:14:34;101603.28;;;3.86;81.35
80202;BME280;69521;54.454;9.928;2023-04-28T06:17:02;101599.38;;;3.93;81.00
80202;BME280;69521;54.454;9.928;2023-04-28T06:19:27;101595.66;;;4.13;79.93
80202;BME280;69521;54.454;9.928;2023-04-28T06:21:52;101603.06;;;4.24;78.75
80202;BME280;69521;54.454;9.928;2023-04-28T06:24:18;101603.53;;;4.32;77.60
80202;BME280;69521;54.454;9.928;2023-04-28T06:26:43;101600.94;;;4.30;78.67
80202;BME280;69521;54.454;9.928;2023-04-28T06:29:08;101601.34;;;4.40;77.50
80202;BME280;69521;54.454;9.928;2023-04-28T06:31:34;101608.69;;;4.52;78.57
80202;BME280;69521;54.454;9.928;2023-04-28T06:33:59;101604.06;;;4.71;79.66
80202;BME280;69521;54.454;9.928;2023-04-28T06:36:24;101602.88;;;4.93;79.95
80202;BME280;69521;54.454;9.928;2023-04-28T06:38:50;101606.47;;;4.92;77.43
80202;BME280;69521;54.454;9.928;2023-04-28T06:41:15;101603.03;;;5.05;77.43
80202;BME280;69521;54.454;9.928;2023-04-28T06:43:41;101596.41;;;5.12;75.82
80202;BME280;69521;54.454;9.928;2023-04-28T06:46:06;101581.28;;;5.29;76.58
80202;BME280;69521;54.454;9.928;2023-04-28T06:48:32;101586.94;;;5.38;74.41
80202;BME280;69521;54.454;9.928;2023-04-28T06:50:57;101582.38;;;5.40;74.13
80202;BME280;69521;54.454;9.928;2023-04-28T06:53:23;101583.00;;;5.60;76.15
80202;BME280;69521;54.454;9.928;2023-04-28T06:55:48;101587.63;;;5.72;72.62
80202;BME280;69521;54.454;9.928;2023-04-28T06:58:13;101594.13;;;5.82;72.81
80202;BME280;69521;54.454;9.928;2023-04-28T07:00:39;101587.13;;;5.95;70.92
80202;BME280;69521;54.454;9.928;2023-04-28T07:03:05;101574.09;;;6.05;69.98
80202;BME280;69521;54.454;9.928;2023-04-28T07:05:31;101578.22;;;6.11;68.92
80202;BME280;69521;54.454;9.928;2023-04-28T07:07:57;101576.72;;;6.21;68.77
80202;BME280;69521;54.454;9.928;2023-04-28T07:10:23;101578.34;;;6.23;69.24
80202;BME280;69521;54.454;9.928;2023-04-28T07:12:49;101574.31;;;6.45;68.62
80202;BME280;69521;54.454;9.928;2023-04-28T07:15:16;101582.22;;;6.60;70.16
80202;BME280;69521;54.454;9.928;2023-04-28T07:17:42;101580.00;;;6.81;69.79
80202;BME280;69521;54.454;9.928;2023-04-28T07:20:07;101578.00;;;6.99;68.37
80202;BME280;69521;54.454;9.928;2023-04-28T07:22:33;101570.78;;;7.14;69.41
80202;BME280;69521;54.454;9.928;2023-04-28T07:24:58;101579.09;;;7.09;66.61
80202;BME280;69521;54.454;9.928;2023-04-28T07:27:24;101579.72;;;7.00;66.75
80202;BME280;69521;54.454;9.928;2023-04-28T07:29:50;101575.22;;;7.27;70.20
80202;BME280;69521;54.454;9.928;2023-04-28T07:32:15;101574.41;;;7.40;67.41
80202;BME280;69521;54.454;9.928;2023-04-28T07:34:41;101564.72;;;7.24;65.99
80202;BME280;69521;54.454;9.928;2023-04-28T07:37:06;101570.78;;;7.41;68.11
80202;BME280;69521;54.454;9.928;2023-04-28T07:39:32;101565.56;;;7.52;66.97
80202;BME280;69521;54.454;9.928;2023-04-28T07:41:59;101572.56;;;7.80;67.02
80202;BME280;69521;54.454;9.928;2023-04-28T07:44:24;101565.22;;;7.83;66.13
80202;BME280;69521;54.454;9.928;2023-04-28T07:46:50;101558.91;;;8.10;65.97
80202;BME280;69521;54.454;9.928;2023-04-28T07:49:15;101553.75;;;8.19;66.92
80202;BME280;69521;54.454;9.928;2023-04-28T07:51:40;101563.84;;;8.41;66.52
80202;BME280;69521;54.454;9.928;2023-04-28T07:54:06;101555.59;;;8.44;65.41
80202;BME280;69521;54.454;9.928;2023-04-28T07:56:31;101556.84;;;8.64;65.29
80202;BME280;69521;54.454;9.928;2023-04-28T07:58:57;101551.66;;;8.86;64.87
80202;BME280;69521;54.454;9.928;2023-04-28T08:01:22;101549.69;;;9.01;62.75
80202;BME280;69521;54.454;9.928;2023-04-28T08:03:47;101543.63;;;9.10;63.81
80202;BME280;69521;54.454;9.928;2023-04-28T08:06:13;101542.72;;;9.22;64.15
80202;BME280;69521;54.454;9.928;2023-04-28T08:08:39;101530.53;;;9.53;63.75
80202;BME280;69521;54.454;9.928;2023-04-28T08:11:04;101528.19;;;9.84;65.28
80202;BME280;69521;54.454;9.928;2023-04-28T08:13:30;101519.88;;;9.76;59.29
80202;BME280;69521;54.454;9.928;2023-04-28T08:15:55;101521.97;;;9.95;60.30
80202;BME280;69521;54.454;9.928;2023-04-28T08:18:21;101531.03;;;10.16;60.00
80202;BME280;69521;54.454;9.928;2023-04-28T08:20:46;101516.25;;;10.10;58.66
80202;BME280;69521;54.454;9.928;2023-04-28T08:23:12;101521.56;;;10.23;58.38
80202;BME280;69521;54.454;9.928;2023-04-28T08:25:37;101516.06;;;10.36;59.88
80202;BME280;69521;54.454;9.928;2023-04-28T08:28:03;101518.66;;;10.48;58.21
80202;BME280;69521;54.454;9.928;2023-04-28T08:30:28;101515.22;;;10.58;60.88
80202;BME280;69521;54.454;9.928;2023-04-28T08:32:54;101510.56;;;10.37;55.66
80202;BME280;69521;54.454;9.928;2023-04-28T08:35:19;101510.06;;;10.55;55.95
80202;BME280;69521;54.454;9.928;2023-04-28T08:37:45;101508.84;;;10.36;58.88
80202;BME280;69521;54.454;9.928;2023-04-28T08:40:11;101505.16;;;10.71;59.78
80202;BME280;69521;54.454;9.928;2023-04-28T08:42:37;101507.56;;;10.85;59.56
80202;BME280;69521;54.454;9.928;2023-04-28T08:45:03;101509.19;;;11.20;57.96
80202;BME280;69521;54.454;9.928;2023-04-28T08:47:36;101502.84;;;11.09;55.02
80202;BME280;69521;54.454;9.928;2023-04-28T08:50:03;101495.97;;;11.16;55.68
80202;BME280;69521;54.454;9.928;2023-04-28T08:52:30;101500.78;;;11.45;58.68
80202;BME280;69521;54.454;9.928;2023-04-28T08:54:57;101489.78;;;11.37;55.30
80202;BME280;69521;54.454;9.928;2023-04-28T08:57:25;101495.75;;;11.08;55.81
80202;BME280;69521;54.454;9.928;2023-04-28T08:59:52;101493.09;;;10.97;54.51
80202;BME280;69521;54.454;9.928;2023-04-28T09:02:18;101489.09;;;11.24;54.13
80202;BME280;69521;54.454;9.928;2023-04-28T09:04:45;101480.00;;;11.36;55.09
80202;BME280;69521;54.454;9.928;2023-04-28T09:07:11;101482.59;;;11.26;51.80
80202;BME280;69521;54.454;9.928;2023-04-28T09:09:37;101478.31;;;11.56;50.08
80202;BME280;69521;54.454;9.928;2023-04-28T09:12:02;101476.84;;;11.72;54.08
80202;BME280;69521;54.454;9.928;2023-04-28T09:14:33;101467.78;;;11.94;52.14
80202;BME280;69521;54.454;9.928;2023-04-28T09:17:00;101462.84;;;12.20;53.40
80202;BME280;69521;54.454;9.928;2023-04-28T09:19:36;101465.88;;;12.36;52.00
80202;BME280;69521;54.454;9.928;2023-04-28T09:22:02;101461.09;;;11.89;48.86
80202;BME280;69521;54.454;9.928;2023-04-28T09:24:33;101459.03;;;12.02;51.94
80202;BME280;69521;54.454;9.928;2023-04-28T09:27:00;101457.06;;;12.04;49.41
80202;BME280;69521;54.454;9.928;2023-04-28T09:29:30;101445.41;;;12.34;52.96
80202;BME280;69521;54.454;9.928;2023-04-28T09:32:16;101450.53;;;12.06;52.75
80202;BME280;69521;54.454;9.928;2023-04-28T09:34:47;101443.06;;;11.89;50.69
80202;BME280;69521;54.454;9.928;2023-04-28T09:37:17;101446.31;;;12.13;51.76
80202;BME280;69521;54.454;9.928;2023-04-28T09:39:45;101440.13;;;12.23;51.07
80202;BME280;69521;54.454;9.928;2023-04-28T09:42:29;101438.22;;;12.54;51.77
80202;BME280;69521;54.454;9.928;2023-04-28T09:44:56;101439.03;;;12.35;51.33
80202;BME280;69521;54.454;9.928;2023-04-28T09:47:21;101437.63;;;12.40;51.36
80202;BME280;69521;54.454;9.928;2023-04-28T09:49:54;101433.16;;;12.70;52.37
80202;BME280;69521;54.454;9.928;2023-04-28T09:52:21;101424.69;;;13.23;46.93
80202;BME280;69521;54.454;9.928;2023-04-28T09:54:49;101416.59;;;13.23;42.83
80202;BME280;69521;54.454;9.928;2023-04-28T09:57:16;101417.25;;;13.54;46.49
80202;BME280;69521;54.454;9.928;2023-04-28T09:59:47;101414.09;;;13.68;44.41
80202;BME280;69521;54.454;9.928;2023-04-28T10:02:17;101406.16;;;13.57;46.65
80202;BME280;69521;54.454;9.928;2023-04-28T10:04:49;101405.50;;;13.92;49.78
80202;BME280;69521;54.454;9.928;2023-04-28T10:07:16;101409.91;;;13.93;48.39
80202;BME280;69521;54.454;9.928;2023-04-28T10:09:49;101406.00;;;14.05;48.97
80202;BME280;69521;54.454;9.928;2023-04-28T10:12:16;101404.06;;;14.25;48.56
80202;BME280;69521;54.454;9.928;2023-04-28T10:14:42;101398.53;;;13.89;44.87
80202;BME280;69521;54.454;9.928;2023-04-28T10:17:10;101402.97;;;13.71;49.74
80202;BME280;69521;54.454;9.928;2023-04-28T10:19:35;101402.00;;;13.62;47.67
80202;BME280;69521;54.454;9.928;2023-04-28T10:27:37;101397.25;;;13.84;47.60
80202;BME280;69521;54.454;9.928;2023-04-28T10:30:21;101386.44;;;13.84;45.55
80202;BME280;69521;54.454;9.928;2023-04-28T10:32:47;101384.72;;;13.83;46.54
80202;BME280;69521;54.454;9.928;2023-04-28T10:38:13;101380.97;;;14.30;48.29
80202;BME280;69521;54.454;9.928;2023-04-28T10:43:10;101362.25;;;14.37;46.31
80202;BME280;69521;54.454;9.928;2023-04-28T10:48:17;101356.34;;;14.69;44.95
80202;BME280;69521;54.454;9.928;2023-04-28T10:56:15;101340.75;;;14.81;47.21
80202;BME280;69521;54.454;9.928;2023-04-28T10:58:43;101339.09;;;15.06;46.54
80202;BME280;69521;54.454;9.928;2023-04-28T11:01:27;101342.53;;;14.90;47.14
80202;BME280;69521;54.454;9.928;2023-04-28T11:03:58;101334.25;;;14.91;47.37
80202;BME280;69521;54.454;9.928;2023-04-28T11:16:52;101327.28;;;13.71;46.69
80202;BME280;69521;54.454;9.928;2023-04-28T11:19:22;101337.13;;;13.62;47.71
80202;BME280;69521;54.454;9.928;2023-04-28T11:21:52;101330.19;;;13.60;47.69
80202;BME280;69521;54.454;9.928;2023-04-28T11:24:19;101328.66;;;13.85;48.64
80202;BME280;69521;54.454;9.928;2023-04-28T11:26:45;101327.94;;;14.38;47.66
80202;BME280;69521;54.454;9.928;2023-04-28T11:29:11;101325.06;;;14.39;45.92
80202;BME280;69521;54.454;9.928;2023-04-28T11:31:39;101320.66;;;14.38;45.83
80202;BME280;69521;54.454;9.928;2023-04-28T11:34:06;101330.81;;;14.72;46.22
80202;BME280;69521;54.454;9.928;2023-04-28T11:36:34;101319.69;;;14.92;45.36
80202;BME280;69521;54.454;9.928;2023-04-28T11:39:01;101307.53;;;14.96;44.01
80202;BME280;69521;54.454;9.928;2023-04-28T11:41:29;101304.06;;;14.86;44.03
80202;BME280;69521;54.454;9.928;2023-04-28T11:43:55;101297.09;;;14.66;43.91
80202;BME280;69521;54.454;9.928;2023-04-28T11:46:23;101313.44;;;14.56;44.12
80202;BME280;69521;54.454;9.928;2023-04-28T11:48:59;101300.97;;;14.00;43.90
80202;BME280;69521;54.454;9.928;2023-04-28T11:51:36;101307.47;;;14.08;47.70
80202;BME280;69521;54.454;9.928;2023-04-28T11:54:03;101307.56;;;14.16;45.35
80202;BME280;69521;54.454;9.928;2023-04-28T11:56:29;101308.78;;;14.03;46.73
80202;BME280;69521;54.454;9.928;2023-04-28T11:59:07;101311.53;;;14.21;47.19
80202;BME280;69521;54.454;9.928;2023-04-28T12:01:43;101299.47;;;14.33;45.40
80202;BME280;69521;54.454;9.928;2023-04-28T12:04:08;101305.28;;;14.39;45.84
80202;BME280;69521;54.454;9.928;2023-04-28T12:06:34;101294.63;;;14.73;47.13
80202;BME280;69521;54.454;9.928;2023-04-28T12:08:59;101296.66;;;14.88;44.20
80202;BME280;69521;54.454;9.928;2023-04-28T12:11:28;101292.13;;;15.49;46.10
80202;BME280;69521;54.454;9.928;2023-04-28T12:14:06;101290.19;;;15.93;44.07
80202;BME280;69521;54.454;9.928;2023-04-28T12:16:40;101294.50;;;15.52;43.18
80202;BME280;69521;54.454;9.928;2023-04-28T12:19:08;101286.03;;;15.21;42.11
80202;BME280;69521;54.454;9.928;2023-04-28T12:21:36;101279.75;;;14.94;43.42
80202;BME280;69521;54.454;9.928;2023-04-28T12:26:40;101270.53;;;15.05;44.53
80202;BME280;69521;54.454;9.928;2023-04-28T12:29:06;101269.03;;;14.85;44.79
80202;BME280;69521;54.454;9.928;2023-04-28T12:31:31;101266.69;;;14.72;42.86
80202;BME280;69521;54.454;9.928;2023-04-28T12:33:56;101267.31;;;14.66;44.71
80202;BME280;69521;54.454;9.928;2023-04-28T12:36:22;101277.63;;;14.80;46.01
80202;BME280;69521;54.454;9.928;2023-04-28T12:38:47;101259.91;;;14.50;43.85
80202;BME280;69521;54.454;9.928;2023-04-28T12:41:13;101268.38;;;14.38;45.95
80202;BME280;69521;54.454;9.928;2023-04-28T12:43:39;101268.06;;;14.05;45.30
80202;BME280;69521;54.454;9.928;2023-04-28T12:46:05;101276.47;;;14.02;46.86
80202;BME280;69521;54.454;9.928;2023-04-28T12:48:32;101274.47;;;13.77;45.91
80202;BME280;69521;54.454;9.928;2023-04-28T12:50:59;101264.31;;;13.88;45.46
80202;BME280;69521;54.454;9.928;2023-04-28T12:53:24;101267.16;;;13.22;46.27
80202;BME280;69521;54.454;9.928;2023-04-28T12:55:50;101262.50;;;13.05;46.31
80202;BME280;69521;54.454;9.928;2023-04-28T12:58:15;101264.06;;;13.07;47.32
80202;BME280;69521;54.454;9.928;2023-04-28T13:00:41;101270.41;;;13.16;47.51
80202;BME280;69521;54.454;9.928;2023-04-28T13:03:07;101266.88;;;13.25;47.31
80202;BME280;69521;54.454;9.928;2023-04-28T13:05:32;101272.25;;;13.35;46.24
80202;BME280;69521;54.454;9.928;2023-04-28T13:07:59;101263.06;;;13.55;47.10
80202;BME280;69521;54.454;9.928;2023-04-28T13:10:24;101260.59;;;13.62;46.17
80202;BME280;69521;54.454;9.928;2023-04-28T13:12:50;101262.53;;;13.42;45.61
80202;BME280;69521;54.454;9.928;2023-04-28T13:15:16;101260.38;;;13.46;45.87
80202;BME280;69521;54.454;9.928;2023-04-28T13:17:41;101260.03;;;13.31;47.46
80202;BME280;69521;54.454;9.928;2023-04-28T13:20:07;101260.03;;;13.31;45.60
80202;BME280;69521;54.454;9.928;2023-04-28T13:22:33;101248.66;;;13.27;46.02